createdAt,value
2023-05-13T00:05:30.870Z,0.70
2023-05-13T00:11:07.911Z,0.50
2023-05-13T00:13:54.207Z,0.50
2023-05-13T00:20:24.455Z,0.80
2023-05-13T00:23:37.641Z,0.70
2023-05-13T00:26:40.052Z,0.60
2023-05-13T00:29:27.395Z,0.60
2023-05-13T00:32:14.776Z,0.70
2023-05-13T00:41:31.229Z,0.50
2023-05-13T00:44:45.149Z,0.50
2023-05-13T00:48:00.841Z,1.20
2023-05-13T00:51:01.203Z,0.70
2023-05-13T00:56:54.750Z,0.30
2023-05-13T00:59:27.959Z,0.60
2023-05-13T01:02:32.917Z,0.80
2023-05-13T01:05:14.242Z,0.70
2023-05-13T01:07:51.819Z,0.60
2023-05-13T01:13:30.326Z,0.70
2023-05-13T01:17:00.013Z,0.80
2023-05-13T01:20:16.612Z,1.40
2023-05-13T01:30:01.087Z,1.00
2023-05-13T01:39:35.734Z,1.00
2023-05-13T01:42:50.689Z,0.90
2023-05-13T01:45:50.874Z,1.30
2023-05-13T01:49:05.153Z,1.10
2023-05-13T01:59:28.291Z,0.50
2023-05-13T02:05:29.292Z,0.50
2023-05-13T02:17:45.502Z,0.90
2023-05-13T02:21:12.688Z,1.00
2023-05-13T02:24:14.462Z,0.90
2023-05-13T02:26:52.147Z,1.00
2023-05-13T02:29:38.672Z,0.60
2023-05-13T02:32:11.778Z,0.80
2023-05-13T02:35:15.007Z,1.80
2023-05-13T02:41:05.774Z,0.60
2023-05-13T02:44:19.445Z,1.10
2023-05-13T02:47:33.640Z,0.90
2023-05-13T02:50:37.832Z,1.00
2023-05-13T03:09:38.658Z,0.40
2023-05-13T03:18:42.230Z,0.80
2023-05-13T03:21:56.518Z,0.90
2023-05-13T03:31:51.330Z,0.90
2023-05-13T03:37:52.002Z,0.70
2023-05-13T03:41:05.275Z,0.70
2023-05-13T03:47:20.605Z,0.70
2023-05-13T03:50:08.882Z,1.00
2023-05-13T03:53:13.227Z,0.80
2023-05-13T03:56:14.186Z,1.20
2023-05-13T04:02:16.354Z,1.10
2023-05-13T04:05:16.420Z,0.80
2023-05-13T04:08:16.481Z,0.60
2023-05-13T04:14:30.767Z,1.00
2023-05-13T04:20:45.559Z,1.10
2023-05-13T04:33:12.138Z,0.80
2023-05-13T04:36:01.705Z,0.70
2023-05-13T04:51:48.670Z,0.80
2023-05-13T04:58:31.196Z,0.50
2023-05-13T05:11:18.278Z,0.90
2023-05-13T05:14:18.323Z,0.60
2023-05-13T05:17:21.931Z,0.60
2023-05-13T05:23:54.251Z,0.50
2023-05-13T05:33:47.623Z,0.70
2023-05-13T05:39:36.313Z,0.80
2023-05-13T05:42:23.324Z,1.20
2023-05-13T05:45:09.355Z,0.70
2023-05-13T05:51:38.321Z,1.20
2023-05-13T05:55:08.896Z,0.70
2023-05-13T06:01:02.119Z,0.60
2023-05-13T06:09:50.081Z,1.00
2023-05-13T06:13:04.270Z,0.70
2023-05-13T06:19:33.218Z,1.30
2023-05-13T06:22:20.133Z,0.90
2023-05-13T06:28:41.571Z,0.60
2023-05-13T06:34:34.312Z,1.50
2023-05-13T06:37:48.148Z,1.10
2023-05-13T06:44:22.034Z,1.40
2023-05-13T06:47:11.430Z,1.90
2023-05-13T06:50:11.256Z,4.10
2023-05-13T06:56:11.930Z,2.50
2023-05-13T07:02:12.038Z,1.70
2023-05-13T07:18:54.408Z,0.90
2023-05-13T07:21:54.189Z,1.00
2023-05-13T07:24:54.120Z,1.20
2023-05-13T07:27:54.624Z,1.30
2023-05-13T07:37:37.417Z,1.10
2023-05-13T07:46:27.805Z,0.70
2023-05-13T07:55:55.689Z,1.60
2023-05-13T08:02:08.989Z,1.30
2023-05-13T08:05:23.066Z,1.50
2023-05-13T08:08:09.452Z,1.20
2023-05-13T08:10:55.863Z,1.20
2023-05-13T08:17:09.320Z,1.00
2023-05-13T08:23:46.251Z,1.00
2023-05-13T08:26:33.197Z,1.40
2023-05-13T08:36:17.449Z,1.10
2023-05-13T08:42:09.066Z,1.20
2023-05-13T08:48:14.087Z,1.20
2023-05-13T08:51:14.526Z,1.10
2023-05-13T08:54:02.723Z,1.00
2023-05-13T08:56:49.680Z,1.10
2023-05-13T08:59:36.846Z,1.50
2023-05-13T09:02:50.685Z,1.60
2023-05-13T09:05:38.983Z,1.80
2023-05-13T09:11:43.916Z,1.70
2023-05-13T09:18:16.389Z,1.90
2023-05-13T09:21:04.542Z,1.80
2023-05-13T09:23:54.397Z,1.70
2023-05-13T09:26:42.975Z,1.40
2023-05-13T09:36:11.088Z,0.90
2023-05-13T09:39:12.250Z,1.50
2023-05-13T09:42:04.524Z,0.80
2023-05-13T09:45:05.614Z,0.80
2023-05-13T09:47:54.105Z,0.60
2023-05-13T10:07:09.098Z,0.80
2023-05-13T10:16:52.368Z,0.90
2023-05-13T10:19:52.855Z,0.70
2023-05-13T10:22:44.801Z,0.70
2023-05-13T10:32:03.070Z,1.00
2023-05-13T10:34:38.859Z,0.60
2023-05-13T10:37:58.390Z,0.90
2023-05-13T10:41:10.990Z,0.80
2023-05-13T10:43:47.292Z,1.20
2023-05-13T10:46:22.410Z,0.70
2023-05-13T10:49:00.423Z,1.20
2023-05-13T10:51:33.728Z,1.30
2023-05-13T10:54:21.531Z,1.10
2023-05-13T10:57:00.578Z,1.00
2023-05-13T10:59:35.071Z,0.60
2023-05-13T11:02:23.660Z,0.60
2023-05-13T11:05:03.062Z,0.60
2023-05-13T11:07:35.580Z,1.90
2023-05-13T11:10:30.186Z,0.70
2023-05-13T11:13:25.020Z,1.20
2023-05-13T11:15:57.560Z,1.60
2023-05-13T11:18:34.481Z,1.10
2023-05-13T11:21:08.174Z,1.40
2023-05-13T11:23:58.863Z,0.90
2023-05-13T11:26:46.534Z,1.10
2023-05-13T11:29:20.029Z,0.80
2023-05-13T11:32:00.027Z,1.00
2023-05-13T11:34:35.283Z,0.60
2023-05-13T11:37:13.029Z,0.70
2023-05-13T11:39:47.870Z,0.50
2023-05-13T11:42:22.858Z,0.70
2023-05-13T11:44:56.124Z,0.90
2023-05-13T11:47:30.224Z,0.70
2023-05-13T11:50:03.385Z,0.70
2023-05-13T11:52:35.876Z,0.70
2023-05-13T11:55:09.759Z,0.60
2023-05-13T11:57:42.639Z,0.70
2023-05-13T12:00:16.141Z,0.50
2023-05-13T12:02:50.538Z,0.90
2023-05-13T12:05:25.779Z,0.50
2023-05-13T12:08:01.436Z,0.50
2023-05-13T12:10:34.726Z,0.70
2023-05-13T12:13:07.503Z,0.70
2023-05-13T12:15:40.640Z,1.00
2023-05-13T12:18:13.099Z,0.80
2023-05-13T12:20:46.846Z,0.60
2023-05-13T12:23:21.941Z,0.70
2023-05-13T12:25:57.013Z,0.60
2023-05-13T12:28:30.300Z,0.60
2023-05-13T12:31:04.843Z,1.10
2023-05-13T12:33:47.039Z,0.50
2023-05-13T12:36:21.778Z,0.50
2023-05-13T12:39:03.057Z,0.60
2023-05-13T12:41:37.670Z,0.40
2023-05-13T12:44:14.604Z,0.70
2023-05-13T12:46:54.592Z,0.70
2023-05-13T12:49:27.058Z,0.60
2023-05-13T12:52:00.730Z,0.80
2023-05-13T12:54:33.663Z,1.10
2023-05-13T12:57:12.165Z,0.70
2023-05-13T12:59:45.622Z,0.50
2023-05-13T13:02:18.988Z,0.70
2023-05-13T13:04:53.888Z,0.30
2023-05-13T13:07:27.499Z,0.70
2023-05-13T13:10:00.455Z,0.70
2023-05-13T13:12:32.870Z,0.70
2023-05-13T13:15:06.646Z,0.60
2023-05-13T13:17:39.624Z,0.90
2023-05-13T13:20:13.857Z,0.60
2023-05-13T13:22:46.307Z,1.00
2023-05-13T13:25:19.472Z,0.60
2023-05-13T13:27:52.266Z,0.50
2023-05-13T13:30:24.948Z,0.50
2023-05-13T13:32:57.466Z,0.50
2023-05-13T13:35:30.458Z,0.40
2023-05-13T13:38:04.233Z,0.30
2023-05-13T13:40:37.259Z,0.80
2023-05-13T13:43:11.251Z,0.40
2023-05-13T13:45:44.075Z,0.40
2023-05-13T13:48:16.630Z,0.50
2023-05-13T13:50:50.586Z,0.40
2023-05-13T13:53:25.166Z,0.50
2023-05-13T13:55:58.054Z,0.60
2023-05-13T13:58:30.268Z,0.40
2023-05-13T14:01:02.669Z,0.60
2023-05-13T14:03:35.074Z,0.40
2023-05-13T14:06:09.085Z,0.60
2023-05-13T14:08:41.889Z,0.40
2023-05-13T14:11:14.182Z,0.40
2023-05-13T14:13:46.501Z,0.40
2023-05-13T14:16:19.102Z,0.90
2023-05-13T14:18:51.328Z,0.50
2023-05-13T14:21:23.622Z,0.40
2023-05-13T14:23:58.738Z,0.60
2023-05-13T14:29:35.476Z,0.80
2023-05-13T14:32:08.804Z,1.10
2023-05-13T14:34:41.153Z,0.80
2023-05-13T14:37:13.222Z,0.50
2023-05-13T14:39:47.050Z,0.60
2023-05-13T14:42:21.699Z,0.90
2023-05-13T14:44:56.147Z,0.50
2023-05-13T14:47:28.356Z,0.50
2023-05-13T14:50:01.088Z,0.80
2023-05-13T14:52:33.228Z,0.50
2023-05-13T14:55:05.799Z,0.60
2023-05-13T14:57:40.328Z,0.60
2023-05-13T15:00:14.798Z,0.40
2023-05-13T15:02:47.460Z,0.50
2023-05-13T15:05:23.322Z,0.50
2023-05-13T15:07:55.589Z,0.50
2023-05-13T15:10:27.730Z,0.60
2023-05-13T15:12:59.956Z,0.50
2023-05-13T15:15:32.254Z,0.70
2023-05-13T15:18:04.612Z,0.60
2023-05-13T15:20:36.769Z,0.60
2023-05-13T15:23:08.934Z,0.80
2023-05-13T15:25:41.140Z,0.60
2023-05-13T15:28:13.339Z,0.40
2023-05-13T15:30:45.474Z,0.70
2023-05-13T15:33:17.737Z,0.50
2023-05-13T15:35:49.844Z,0.40
2023-05-13T15:38:23.442Z,0.70
2023-05-13T15:40:55.769Z,0.90
2023-05-13T15:43:30.870Z,0.80
2023-05-13T15:46:04.198Z,1.00
2023-05-13T15:48:36.532Z,0.60
2023-05-13T15:54:24.670Z,0.80
2023-05-13T15:56:59.771Z,0.70
2023-05-13T15:59:31.720Z,0.60
2023-05-13T16:02:04.319Z,0.50
2023-05-13T16:04:36.631Z,0.70
2023-05-13T16:07:11.014Z,0.70
2023-05-13T16:12:36.186Z,0.50
2023-05-13T16:15:11.206Z,0.50
2023-05-13T16:17:43.609Z,0.60
2023-05-13T16:20:15.994Z,0.60
2023-05-13T16:22:48.120Z,0.40
2023-05-13T16:25:22.441Z,0.80
2023-05-13T16:27:56.992Z,3.90
2023-05-13T16:30:29.160Z,2.40
2023-05-13T16:33:01.269Z,1.30
2023-05-13T16:35:33.389Z,2.00
2023-05-13T16:38:05.899Z,1.00
2023-05-13T16:40:38.756Z,0.90
2023-05-13T16:43:11.229Z,1.10
2023-05-13T16:45:43.942Z,0.50
2023-05-13T16:48:16.288Z,0.40
2023-05-13T16:50:49.414Z,0.60
2023-05-13T16:53:22.665Z,0.70
2023-05-13T16:55:54.860Z,0.60
2023-05-13T16:58:28.153Z,0.40
2023-05-13T17:01:01.163Z,0.40
2023-05-13T17:03:33.584Z,0.80
2023-05-13T17:06:07.318Z,0.80
2023-05-13T17:08:39.412Z,0.60
2023-05-13T17:11:18.355Z,0.60
2023-05-13T17:13:50.598Z,0.80
2023-05-13T17:16:22.862Z,0.70
2023-05-13T17:18:56.982Z,1.40
2023-05-13T17:21:31.237Z,0.80
2023-05-13T17:24:04.210Z,0.80
2023-05-13T17:26:38.597Z,1.00
2023-05-13T17:29:12.090Z,0.60
2023-05-13T17:31:44.310Z,1.10
2023-05-13T17:34:16.784Z,1.00
2023-05-13T17:36:50.228Z,1.70
2023-05-13T17:39:22.791Z,1.00
2023-05-13T17:41:54.840Z,1.50
2023-05-13T17:44:28.171Z,1.50
2023-05-13T17:47:00.505Z,1.00
2023-05-13T17:49:32.775Z,0.90
2023-05-13T17:52:05.348Z,1.90
2023-05-13T17:54:38.212Z,2.60
2023-05-13T17:57:11.290Z,3.30
2023-05-13T17:59:43.862Z,6.60
2023-05-13T18:02:16.796Z,2.10
2023-05-13T18:04:49.065Z,3.20
2023-05-13T18:07:21.444Z,15.80
2023-05-13T18:09:53.789Z,11.70
2023-05-13T18:12:26.259Z,2.00
2023-05-13T18:14:58.471Z,5.40
2023-05-13T18:17:31.097Z,7.70
2023-05-13T18:20:03.669Z,22.10
2023-05-13T18:22:36.973Z,6.90
2023-05-13T18:25:12.085Z,2.00
2023-05-13T18:27:47.112Z,1.50
2023-05-13T18:30:26.833Z,1.70
2023-05-13T18:32:59.792Z,1.40
2023-05-13T18:35:32.025Z,1.50
2023-05-13T18:38:04.569Z,1.10
2023-05-13T18:40:36.804Z,1.30
2023-05-13T18:43:10.115Z,1.40
2023-05-13T18:45:43.132Z,1.40
2023-05-13T18:48:15.424Z,2.20
2023-05-13T18:50:47.785Z,8.40
2023-05-13T18:53:19.704Z,14.30
2023-05-13T18:55:52.048Z,14.00
2023-05-13T18:58:24.044Z,11.50
2023-05-13T19:00:57.309Z,7.20
2023-05-13T19:03:29.458Z,4.00
2023-05-13T19:06:01.659Z,3.80
2023-05-13T19:08:35.024Z,3.10
2023-05-13T19:11:08.028Z,2.00
2023-05-13T19:16:18.196Z,1.60
2023-05-13T19:18:50.312Z,1.70
2023-05-13T19:21:23.522Z,1.30
2023-05-13T19:23:55.682Z,1.30
2023-05-13T19:26:27.774Z,0.90
2023-05-13T19:29:00.481Z,1.10
2023-05-13T19:31:32.821Z,1.40
2023-05-13T19:34:05.381Z,1.30
2023-05-13T19:36:38.093Z,1.20
2023-05-13T19:39:10.532Z,1.50
2023-05-13T19:41:42.687Z,3.00
2023-05-13T19:44:15.034Z,3.30
2023-05-13T19:46:47.704Z,1.70
2023-05-13T19:49:19.801Z,1.20
2023-05-13T19:51:52.185Z,1.80
2023-05-13T19:54:24.381Z,1.70
2023-05-13T19:56:57.072Z,1.60
2023-05-13T19:59:29.224Z,1.40
2023-05-13T20:02:01.908Z,1.50
2023-05-13T20:04:34.714Z,1.50
2023-05-13T20:07:09.428Z,1.50
2023-05-13T20:09:42.052Z,1.20
2023-05-13T20:12:14.773Z,1.10
2023-05-13T20:14:48.670Z,1.30
2023-05-13T20:17:21.612Z,1.00
2023-05-13T20:19:55.761Z,1.30
2023-05-13T20:22:27.728Z,1.10
2023-05-13T20:24:59.992Z,1.20
2023-05-13T20:27:32.711Z,0.90
2023-05-13T20:30:10.640Z,1.10
2023-05-13T20:32:42.842Z,1.20
2023-05-13T20:35:14.994Z,0.90
2023-05-13T20:37:47.231Z,1.30
2023-05-13T20:40:19.353Z,1.00
2023-05-13T20:42:51.494Z,1.10
2023-05-13T20:45:23.720Z,1.10
2023-05-13T20:47:59.296Z,1.30
2023-05-13T20:50:31.694Z,1.90
2023-05-13T20:53:04.188Z,2.20
2023-05-13T20:55:36.613Z,1.40
2023-05-13T20:58:09.142Z,2.10
2023-05-13T21:00:41.606Z,1.20
2023-05-13T21:03:13.732Z,1.60
2023-05-13T21:05:47.494Z,1.40
2023-05-13T21:08:19.676Z,1.50
2023-05-13T21:10:56.166Z,1.30
2023-05-13T21:13:28.553Z,1.20
2023-05-13T21:16:01.099Z,1.40
2023-05-13T21:18:34.230Z,1.20
2023-05-13T21:21:11.447Z,1.30
2023-05-13T21:23:46.181Z,1.50
2023-05-13T21:26:18.319Z,1.20
2023-05-13T21:28:50.841Z,1.60
2023-05-13T21:31:24.063Z,1.00
2023-05-13T21:33:56.162Z,0.70
2023-05-13T21:36:29.758Z,1.30
2023-05-13T21:39:02.027Z,0.90
2023-05-13T21:41:35.468Z,1.20
2023-05-13T21:44:08.148Z,1.50
2023-05-13T21:46:40.371Z,1.40
2023-05-13T21:49:13.272Z,1.40
2023-05-13T21:51:46.191Z,1.10
2023-05-13T21:54:19.301Z,1.50
2023-05-13T21:56:52.481Z,2.10
2023-05-13T21:59:25.656Z,2.60
2023-05-13T22:01:58.223Z,2.40
2023-05-13T22:04:30.366Z,1.80
2023-05-13T22:07:03.846Z,2.00
2023-05-13T22:09:36.402Z,1.70
2023-05-13T22:12:11.113Z,1.70
2023-05-13T22:14:43.327Z,1.40
2023-05-13T22:17:16.639Z,1.50
2023-05-13T22:19:48.912Z,1.80
2023-05-13T22:22:21.151Z,3.40
2023-05-13T22:25:36.834Z,2.10
2023-05-13T22:28:10.833Z,2.30
2023-05-13T22:30:44.722Z,2.00
2023-05-13T22:33:16.779Z,3.10
2023-05-13T22:35:49.106Z,2.30
2023-05-13T22:38:21.983Z,1.80
2023-05-13T22:40:54.526Z,2.00
2023-05-13T22:43:26.875Z,2.30
2023-05-13T22:45:59.090Z,2.20
2023-05-13T22:48:31.068Z,1.90
2023-05-13T22:51:07.231Z,2.10
2023-05-13T22:53:39.623Z,2.10
2023-05-13T22:56:13.090Z,1.70
2023-05-13T22:58:45.194Z,1.80
2023-05-13T23:01:17.379Z,1.90
2023-05-13T23:03:49.679Z,1.80
2023-05-13T23:06:21.877Z,1.50
2023-05-13T23:08:54.156Z,1.80
2023-05-13T23:11:27.103Z,1.90
2023-05-13T23:13:59.315Z,2.10
2023-05-13T23:16:32.486Z,1.90
2023-05-13T23:19:06.197Z,1.90
2023-05-13T23:21:38.804Z,2.00
2023-05-13T23:24:10.988Z,1.40
2023-05-13T23:26:46.471Z,1.50
2023-05-13T23:29:19.852Z,1.60
2023-05-13T23:31:52.157Z,1.80
2023-05-13T23:34:24.350Z,1.60
2023-05-13T23:36:56.958Z,1.80
2023-05-13T23:39:29.014Z,2.60
2023-05-13T23:42:01.476Z,1.90
2023-05-13T23:44:34.234Z,1.50
2023-05-13T23:47:06.810Z,1.40
2023-05-13T23:49:38.887Z,1.90
2023-05-13T23:52:11.348Z,2.00
2023-05-13T23:54:43.452Z,1.50
2023-05-13T23:57:15.533Z,1.40
2023-05-13T23:59:47.947Z,2.20
